createdAt,value
2023-02-04T00:02:00.507Z,9.70
2023-02-04T00:04:27.049Z,10.43
2023-02-04T00:06:53.708Z,9.85
2023-02-04T00:09:20.306Z,10.45
2023-02-04T00:11:46.840Z,10.15
2023-02-04T00:14:13.562Z,10.05
2023-02-04T00:16:40.134Z,9.95
2023-02-04T00:19:06.628Z,10.18
2023-02-04T00:21:33.221Z,10.68
2023-02-04T00:23:59.770Z,9.95
2023-02-04T00:26:26.305Z,10.63
2023-02-04T00:28:52.867Z,10.50
2023-02-04T00:31:19.522Z,10.95
2023-02-04T00:33:46.087Z,10.02
2023-02-04T00:36:12.672Z,10.57
2023-02-04T00:38:39.236Z,9.93
2023-02-04T00:41:07.044Z,10.77
2023-02-04T00:43:33.719Z,10.65
2023-02-04T00:46:00.502Z,11.13
2023-02-04T00:48:27.161Z,10.50
2023-02-04T00:50:54.367Z,10.00
2023-02-04T00:53:20.964Z,10.57
2023-02-04T00:55:47.600Z,11.02
2023-02-04T00:58:14.261Z,10.73
2023-02-04T01:00:40.841Z,10.93
2023-02-04T01:03:07.817Z,10.90
2023-02-04T01:05:34.405Z,11.90
2023-02-04T01:08:00.975Z,11.18
2023-02-04T01:10:28.672Z,11.95
2023-02-04T01:12:55.590Z,13.05
2023-02-04T01:15:23.073Z,11.57
2023-02-04T01:17:49.801Z,12.32
2023-02-04T01:20:16.708Z,11.73
2023-02-04T01:22:43.247Z,13.00
2023-02-04T01:25:10.060Z,13.60
2023-02-04T01:27:36.685Z,12.43
2023-02-04T01:30:04.983Z,13.40
2023-02-04T01:32:31.552Z,13.82
2023-02-04T01:34:58.125Z,14.40
2023-02-04T01:37:24.658Z,13.63
2023-02-04T01:39:51.300Z,14.52
2023-02-04T01:42:17.962Z,14.60
2023-02-04T01:44:44.673Z,15.18
2023-02-04T01:47:11.539Z,15.27
2023-02-04T01:49:38.101Z,15.88
2023-02-04T01:52:05.257Z,15.02
2023-02-04T01:54:32.286Z,15.98
2023-02-04T01:56:59.167Z,15.45
2023-02-04T01:59:27.002Z,16.70
2023-02-04T02:01:54.759Z,15.32
2023-02-04T02:04:33.769Z,16.05
2023-02-04T02:07:03.794Z,16.42
2023-02-04T02:09:31.507Z,16.38
2023-02-04T02:11:58.843Z,16.77
2023-02-04T02:14:25.501Z,16.95
2023-02-04T02:16:52.163Z,16.88
2023-02-04T02:19:27.367Z,15.88
2023-02-04T02:22:05.105Z,16.70
2023-02-04T02:24:34.646Z,16.90
2023-02-04T02:27:08.455Z,16.42
2023-02-04T02:29:36.654Z,16.13
2023-02-04T02:32:03.372Z,17.92
2023-02-04T02:34:30.723Z,16.65
2023-02-04T02:36:59.471Z,16.92
2023-02-04T02:39:26.910Z,17.02
2023-02-04T02:41:55.120Z,16.08
2023-02-04T02:44:22.057Z,16.58
2023-02-04T02:46:49.041Z,15.98
2023-02-04T02:49:18.087Z,16.02
2023-02-04T02:51:45.994Z,16.42
2023-02-04T02:54:28.389Z,15.98
2023-02-04T02:56:56.036Z,16.67
2023-02-04T02:59:23.476Z,16.45
2023-02-04T03:01:55.258Z,15.15
2023-02-04T03:04:22.475Z,14.57
2023-02-04T03:06:49.769Z,14.45
2023-02-04T03:09:16.523Z,14.30
2023-02-04T03:11:43.299Z,15.70
2023-02-04T03:14:09.908Z,14.85
2023-02-04T03:16:38.034Z,15.02
2023-02-04T03:19:07.648Z,15.50
2023-02-04T03:21:35.159Z,15.00
2023-02-04T03:24:02.047Z,14.50
2023-02-04T03:26:28.632Z,15.13
2023-02-04T03:28:55.204Z,14.52
2023-02-04T03:31:22.270Z,15.57
2023-02-04T03:33:48.865Z,14.88
2023-02-04T03:36:15.425Z,15.32
2023-02-04T03:38:42.038Z,16.50
2023-02-04T03:41:08.609Z,14.93
2023-02-04T03:43:35.287Z,16.30
2023-02-04T03:46:02.101Z,14.95
2023-02-04T03:48:28.663Z,13.85
2023-02-04T03:50:55.182Z,15.30
2023-02-04T03:53:22.312Z,14.85
2023-02-04T03:55:48.866Z,14.85
2023-02-04T03:58:15.530Z,15.52
2023-02-04T04:00:42.199Z,13.80
2023-02-04T04:03:09.044Z,13.57
2023-02-04T04:05:35.716Z,12.40
2023-02-04T04:08:02.440Z,12.43
2023-02-04T04:10:29.591Z,11.88
2023-02-04T04:12:56.926Z,11.95
2023-02-04T04:15:23.980Z,11.65
2023-02-04T04:17:50.705Z,11.55
2023-02-04T04:20:17.576Z,13.23
2023-02-04T04:22:45.874Z,11.00
2023-02-04T04:25:12.696Z,10.80
2023-02-04T04:27:39.284Z,9.93
2023-02-04T04:30:06.246Z,10.10
2023-02-04T04:32:32.915Z,9.93
2023-02-04T04:34:59.601Z,9.63
2023-02-04T04:37:26.364Z,8.07
2023-02-04T04:39:53.326Z,7.93
2023-02-04T04:42:20.063Z,7.90
2023-02-04T04:44:46.603Z,7.13
2023-02-04T04:47:13.169Z,6.68
2023-02-04T04:49:39.735Z,6.57
2023-02-04T04:52:06.294Z,6.18
2023-02-04T04:54:32.829Z,6.00
2023-02-04T04:56:59.402Z,5.53
2023-02-04T04:59:25.970Z,6.10
2023-02-04T05:01:52.651Z,5.38
2023-02-04T05:04:19.202Z,5.88
2023-02-04T05:06:46.091Z,4.93
2023-02-04T05:09:12.727Z,5.25
2023-02-04T05:11:39.261Z,5.55
2023-02-04T05:14:05.856Z,5.55
2023-02-04T05:16:32.503Z,5.82
2023-02-04T05:18:59.066Z,6.07
2023-02-04T05:21:25.625Z,5.82
2023-02-04T05:23:52.171Z,6.00
2023-02-04T05:26:29.490Z,6.38
2023-02-04T05:28:57.010Z,6.28
2023-02-04T05:31:23.722Z,6.55
2023-02-04T05:33:50.412Z,6.60
2023-02-04T05:36:17.899Z,6.80
2023-02-04T05:38:44.647Z,7.20
2023-02-04T05:41:11.206Z,6.88
2023-02-04T05:43:37.821Z,7.00
2023-02-04T05:46:04.744Z,6.85
2023-02-04T05:48:31.436Z,7.05
2023-02-04T05:50:57.982Z,7.00
2023-02-04T05:53:26.166Z,7.20
2023-02-04T05:55:52.905Z,7.40
2023-02-04T05:58:19.731Z,6.90
2023-02-04T06:00:46.396Z,5.43
2023-02-04T06:03:14.531Z,6.32
2023-02-04T06:05:41.366Z,6.75
2023-02-04T06:08:08.149Z,7.13
2023-02-04T06:10:34.687Z,7.40
2023-02-04T06:13:01.286Z,7.30
2023-02-04T06:15:27.877Z,7.65
2023-02-04T06:17:54.481Z,7.30
2023-02-04T06:20:21.047Z,7.47
2023-02-04T06:22:51.644Z,7.03
2023-02-04T06:25:18.994Z,7.60
2023-02-04T06:27:45.617Z,6.50
2023-02-04T06:30:12.670Z,7.53
2023-02-04T06:32:39.242Z,6.30
2023-02-04T06:35:06.270Z,7.53
2023-02-04T06:37:32.906Z,8.70
2023-02-04T06:39:59.501Z,6.82
2023-02-04T06:42:26.066Z,8.30
2023-02-04T06:44:53.444Z,7.80
2023-02-04T06:47:20.157Z,8.18
2023-02-04T06:49:46.719Z,7.25
2023-02-04T06:52:13.314Z,6.40
2023-02-04T06:54:39.903Z,7.00
2023-02-04T06:57:09.418Z,6.88
2023-02-04T06:59:38.161Z,8.30
2023-02-04T07:02:06.377Z,5.13
2023-02-04T07:04:33.724Z,4.10
2023-02-04T07:07:00.420Z,2.53
2023-02-04T07:09:27.382Z,2.70
2023-02-04T07:11:54.183Z,2.50
2023-02-04T07:14:20.780Z,2.28
2023-02-04T07:16:47.304Z,2.65
2023-02-04T07:19:13.874Z,2.97
2023-02-04T07:21:40.450Z,3.95
2023-02-04T07:24:07.106Z,3.90
2023-02-04T07:26:34.397Z,3.80
2023-02-04T07:29:01.084Z,3.75
2023-02-04T07:31:27.900Z,3.88
2023-02-04T07:33:54.487Z,4.28
2023-02-04T07:36:21.124Z,4.15
2023-02-04T07:38:47.752Z,3.70
2023-02-04T07:41:14.385Z,2.85
2023-02-04T07:43:41.086Z,2.60
2023-02-04T07:46:07.768Z,2.53
2023-02-04T07:48:34.373Z,2.15
2023-02-04T07:51:00.986Z,2.40
2023-02-04T07:53:27.539Z,2.20
2023-02-04T07:55:54.095Z,2.10
2023-02-04T07:58:20.695Z,1.70
2023-02-04T08:00:47.232Z,1.70
2023-02-04T08:03:13.776Z,1.83
2023-02-04T08:05:40.379Z,1.80
2023-02-04T08:08:06.979Z,1.58
2023-02-04T08:10:33.871Z,1.55
2023-02-04T08:13:00.792Z,1.65
2023-02-04T08:15:27.355Z,1.50
2023-02-04T08:17:53.886Z,1.60
2023-02-04T08:20:20.522Z,1.58
2023-02-04T08:22:47.152Z,2.78
2023-02-04T08:25:13.689Z,8.68
2023-02-04T08:27:40.324Z,12.20
2023-02-04T08:30:07.562Z,4.13
2023-02-04T08:32:34.172Z,6.53
2023-02-04T08:35:01.188Z,4.63
2023-02-04T08:37:27.800Z,3.10
2023-02-04T08:39:54.407Z,4.50
2023-02-04T08:42:20.931Z,3.58
2023-02-04T08:44:47.621Z,10.52
2023-02-04T08:47:14.206Z,4.10
2023-02-04T08:49:40.803Z,19.83
2023-02-04T08:52:08.355Z,2.97
2023-02-04T08:54:35.711Z,2.88
2023-02-04T08:57:03.037Z,4.07
2023-02-04T08:59:29.947Z,2.38
2023-02-04T09:01:56.550Z,2.60
2023-02-04T09:04:24.709Z,1.60
2023-02-04T09:06:51.649Z,2.78
2023-02-04T09:09:19.367Z,2.25
2023-02-04T09:11:47.551Z,2.85
2023-02-04T09:14:14.301Z,4.22
2023-02-04T09:16:40.999Z,1.77
2023-02-04T09:19:09.284Z,3.13
2023-02-04T09:21:35.841Z,0.82
2023-02-04T09:24:02.491Z,1.10
2023-02-04T09:26:29.199Z,7.65
2023-02-04T09:28:55.842Z,1.38
2023-02-04T09:31:22.626Z,3.15
2023-02-04T09:33:49.333Z,2.67
2023-02-04T09:36:15.919Z,1.67
2023-02-04T09:38:42.623Z,1.10
2023-02-04T09:41:12.240Z,0.82
2023-02-04T09:43:41.736Z,1.50
2023-02-04T09:46:20.618Z,1.60
2023-02-04T09:48:47.812Z,1.25
2023-02-04T09:51:20.988Z,0.93
2023-02-04T09:53:48.869Z,1.33
2023-02-04T09:56:15.662Z,1.30
2023-02-04T09:58:43.010Z,1.13
2023-02-04T10:01:16.194Z,2.20
2023-02-04T10:03:47.832Z,1.50
2023-02-04T10:06:20.245Z,1.92
2023-02-04T10:08:48.983Z,1.95
2023-02-04T10:11:18.191Z,1.50
2023-02-04T10:13:50.320Z,1.85
2023-02-04T10:16:29.890Z,1.50
2023-02-04T10:19:02.811Z,1.83
2023-02-04T10:21:39.885Z,1.52
2023-02-04T10:24:17.013Z,1.80
2023-02-04T10:26:43.643Z,1.70
2023-02-04T10:29:19.272Z,1.88
2023-02-04T10:31:50.788Z,1.42
2023-02-04T10:34:19.873Z,2.05
2023-02-04T10:36:54.591Z,1.77
2023-02-04T10:39:23.221Z,2.50
2023-02-04T10:41:54.888Z,2.25
2023-02-04T10:44:26.833Z,1.92
2023-02-04T10:47:08.806Z,2.55
2023-02-04T10:49:36.620Z,2.40
2023-02-04T10:52:13.812Z,2.25
2023-02-04T10:54:40.414Z,3.25
2023-02-04T10:57:16.100Z,2.78
2023-02-04T10:59:44.014Z,2.47
2023-02-04T11:02:41.442Z,2.15
2023-02-04T11:05:32.552Z,3.47
2023-02-04T11:07:59.823Z,2.38
2023-02-04T11:10:33.368Z,3.03
2023-02-04T11:13:03.534Z,2.20
2023-02-04T11:15:50.847Z,2.60
2023-02-04T11:18:20.718Z,2.92
2023-02-04T11:20:49.163Z,3.05
2023-02-04T11:23:28.484Z,2.25
2023-02-04T11:26:07.491Z,2.70
2023-02-04T11:28:48.349Z,2.60
2023-02-04T11:31:21.592Z,2.47
2023-02-04T11:33:50.086Z,3.22
2023-02-04T11:36:17.798Z,2.95
2023-02-04T11:38:47.425Z,2.85
2023-02-04T11:41:24.826Z,3.22
2023-02-04T11:43:53.324Z,2.58
2023-02-04T11:46:20.552Z,2.08
2023-02-04T11:48:47.207Z,2.50
2023-02-04T11:51:18.502Z,2.65
2023-02-04T11:53:51.826Z,2.75
2023-02-04T11:56:20.427Z,2.67
2023-02-04T11:58:48.682Z,2.22
2023-02-04T12:01:29.947Z,2.13
2023-02-04T12:03:59.752Z,3.17
2023-02-04T12:06:29.005Z,2.50
2023-02-04T12:09:14.254Z,2.60
2023-02-04T12:11:51.403Z,2.53
2023-02-04T12:14:18.715Z,2.55
2023-02-04T12:16:47.171Z,2.40
2023-02-04T12:19:14.573Z,2.70
2023-02-04T12:21:41.275Z,2.42
2023-02-04T12:24:07.922Z,3.28
2023-02-04T12:26:34.637Z,2.30
2023-02-04T12:29:03.515Z,2.42
2023-02-04T12:31:30.517Z,2.55
2023-02-04T12:33:57.647Z,2.33
2023-02-04T12:36:24.952Z,2.50
2023-02-04T12:38:51.518Z,2.30
2023-02-04T12:41:19.930Z,2.50
2023-02-04T12:43:50.406Z,2.60
2023-02-04T12:46:17.931Z,2.38
2023-02-04T12:48:44.600Z,2.45
2023-02-04T12:51:11.178Z,2.55
2023-02-04T12:53:37.780Z,3.28
2023-02-04T12:56:04.759Z,2.95
2023-02-04T12:58:31.340Z,2.72
2023-02-04T13:00:57.983Z,2.47
2023-02-04T13:03:25.385Z,2.28
2023-02-04T13:05:51.987Z,2.53
2023-02-04T13:08:18.601Z,2.60
2023-02-04T13:10:45.184Z,2.80
2023-02-04T13:13:11.760Z,2.63
2023-02-04T13:15:38.308Z,2.33
2023-02-04T13:18:04.892Z,3.08
2023-02-04T13:20:31.447Z,2.25
2023-02-04T13:22:57.984Z,2.17
2023-02-04T13:25:24.507Z,2.25
2023-02-04T13:27:51.157Z,2.55
2023-02-04T13:30:18.124Z,2.88
2023-02-04T13:32:44.753Z,2.40
2023-02-04T13:35:11.479Z,2.30
2023-02-04T13:37:38.681Z,1.63
2023-02-04T13:40:07.823Z,2.70
2023-02-04T13:42:34.415Z,2.28
2023-02-04T13:45:01.080Z,2.55
2023-02-04T13:47:27.643Z,2.63
2023-02-04T13:49:54.188Z,2.60
2023-02-04T13:52:21.343Z,2.60
2023-02-04T13:54:47.889Z,3.13
2023-02-04T13:57:14.439Z,2.45
2023-02-04T13:59:41.201Z,2.80
2023-02-04T14:02:09.491Z,2.53
2023-02-04T14:04:36.956Z,2.75
2023-02-04T14:07:03.652Z,2.67
2023-02-04T14:09:30.168Z,2.63
2023-02-04T14:11:56.721Z,2.20
2023-02-04T14:14:23.365Z,2.35
2023-02-04T14:16:49.944Z,2.80
2023-02-04T14:19:17.077Z,2.30
2023-02-04T14:21:43.700Z,2.17
2023-02-04T14:24:10.322Z,2.63
2023-02-04T14:26:36.881Z,2.20
2023-02-04T14:29:04.587Z,3.28
2023-02-04T14:31:31.221Z,3.80
2023-02-04T14:33:59.405Z,2.88
2023-02-04T14:36:25.941Z,3.08
2023-02-04T14:38:52.463Z,2.42
2023-02-04T14:41:21.331Z,2.60
2023-02-04T14:43:48.045Z,2.17
2023-02-04T14:46:14.914Z,2.45
2023-02-04T14:48:41.670Z,2.25
2023-02-04T14:51:08.245Z,2.60
2023-02-04T14:53:34.806Z,2.53
2023-02-04T14:56:01.369Z,2.30
2023-02-04T14:58:28.164Z,2.58
2023-02-04T15:00:55.188Z,2.50
2023-02-04T15:03:22.016Z,2.55
2023-02-04T15:05:48.584Z,2.75
2023-02-04T15:08:15.119Z,2.60
2023-02-04T15:10:41.737Z,2.55
2023-02-04T15:13:08.598Z,2.58
2023-02-04T15:15:35.200Z,2.65
2023-02-04T15:18:01.754Z,2.53
2023-02-04T15:20:28.468Z,2.40
2023-02-04T15:22:56.479Z,3.72
2023-02-04T15:25:23.870Z,3.95
2023-02-04T15:27:50.467Z,2.63
2023-02-04T15:30:17.421Z,2.58
2023-02-04T15:32:45.976Z,2.65
2023-02-04T15:35:13.578Z,2.15
2023-02-04T15:37:40.200Z,2.92
2023-02-04T15:40:08.712Z,2.92
2023-02-04T15:42:35.783Z,2.63
2023-02-04T15:45:02.435Z,2.67
2023-02-04T15:47:28.993Z,2.50
2023-02-04T15:49:55.581Z,2.40
2023-02-04T15:52:24.937Z,2.72
2023-02-04T15:54:53.098Z,2.67
2023-02-04T15:57:19.676Z,3.15
2023-02-04T15:59:46.863Z,2.75
2023-02-04T16:02:13.894Z,2.60
2023-02-04T16:04:41.644Z,2.22
2023-02-04T16:07:08.485Z,3.10
2023-02-04T16:09:35.775Z,2.92
2023-02-04T16:12:02.471Z,2.80
2023-02-04T16:14:29.150Z,3.00
2023-02-04T16:16:55.761Z,2.90
2023-02-04T16:19:22.316Z,3.13
2023-02-04T16:21:48.873Z,3.30
2023-02-04T16:24:18.456Z,2.80
2023-02-04T16:26:46.147Z,3.05
2023-02-04T16:29:12.798Z,3.38
2023-02-04T16:31:39.388Z,3.00
2023-02-04T16:34:06.097Z,2.55
2023-02-04T16:36:32.755Z,2.85
2023-02-04T16:39:00.195Z,2.90
2023-02-04T16:41:26.900Z,3.10
2023-02-04T16:43:53.521Z,3.30
2023-02-04T16:46:20.123Z,3.00
2023-02-04T16:48:46.701Z,3.55
2023-02-04T16:51:13.317Z,3.50
2023-02-04T16:53:39.944Z,3.20
2023-02-04T16:56:07.246Z,3.25
2023-02-04T16:58:33.846Z,4.45
2023-02-04T17:01:00.499Z,4.10
2023-02-04T17:03:28.163Z,4.20
2023-02-04T17:05:54.711Z,4.55
2023-02-04T17:08:21.326Z,4.40
2023-02-04T17:11:07.265Z,4.25
2023-02-04T17:13:34.317Z,4.25
2023-02-04T17:16:01.434Z,3.72
2023-02-04T17:18:29.972Z,3.53
2023-02-04T17:20:57.410Z,4.53
2023-02-04T17:23:24.023Z,3.67
2023-02-04T17:25:50.724Z,3.60
2023-02-04T17:28:17.502Z,3.67
2023-02-04T17:30:44.178Z,3.72
2023-02-04T17:33:10.785Z,2.67
2023-02-04T17:35:37.316Z,2.90
2023-02-04T17:38:03.915Z,3.35
2023-02-04T17:40:30.493Z,3.13
2023-02-04T17:42:57.087Z,3.03
2023-02-04T17:45:24.576Z,3.47
2023-02-04T17:47:51.147Z,3.15
2023-02-04T17:50:19.178Z,3.17
2023-02-04T17:52:45.753Z,3.00
2023-02-04T17:55:27.740Z,3.03
2023-02-04T17:57:55.587Z,2.72
2023-02-04T18:00:25.180Z,6.43
2023-02-04T18:02:52.868Z,37.63
2023-02-04T18:05:22.521Z,3.58
2023-02-04T18:08:13.293Z,4.65
2023-02-04T18:10:43.645Z,3.63
2023-02-04T18:13:15.151Z,4.43
2023-02-04T18:15:44.782Z,5.95
2023-02-04T18:18:32.462Z,4.80
2023-02-04T18:21:03.063Z,4.55
2023-02-04T18:23:32.618Z,3.95
2023-02-04T18:26:08.635Z,3.95
2023-02-04T18:28:36.856Z,3.83
2023-02-04T18:31:04.158Z,3.85
2023-02-04T18:33:33.068Z,4.00
2023-02-04T18:36:01.262Z,2.80
2023-02-04T18:38:37.192Z,3.30
2023-02-04T18:41:18.927Z,3.13
2023-02-04T18:43:50.816Z,2.80
2023-02-04T18:46:27.080Z,4.03
2023-02-04T18:49:05.447Z,7.63
2023-02-04T18:51:35.221Z,5.00
2023-02-04T18:54:23.274Z,3.50
2023-02-04T18:56:49.909Z,2.88
2023-02-04T18:59:18.722Z,3.28
2023-02-04T19:01:47.863Z,3.13
2023-02-04T19:04:22.318Z,2.50
2023-02-04T19:06:52.234Z,3.05
2023-02-04T19:09:24.833Z,3.00
2023-02-04T19:11:54.253Z,3.50
2023-02-04T19:14:39.044Z,2.97
2023-02-04T19:17:16.923Z,3.50
2023-02-04T19:19:53.282Z,3.42
2023-02-04T19:22:40.922Z,3.53
2023-02-04T19:25:46.466Z,3.80
2023-02-04T19:28:25.079Z,4.00
2023-02-04T19:30:58.461Z,4.57
2023-02-04T19:33:33.555Z,5.20
2023-02-04T19:36:34.053Z,4.55
2023-02-04T19:39:19.378Z,5.25
2023-02-04T19:41:51.503Z,4.82
2023-02-04T19:47:18.512Z,5.20
2023-02-04T19:49:45.080Z,5.05
2023-02-04T19:52:30.492Z,4.28
2023-02-04T19:55:19.717Z,4.45
2023-02-04T19:57:49.925Z,4.65
2023-02-04T20:00:37.403Z,4.20
2023-02-04T20:03:16.492Z,4.43
2023-02-04T20:05:43.872Z,4.05
2023-02-04T20:08:41.507Z,3.80
2023-02-04T20:11:29.844Z,4.85
2023-02-04T20:14:14.724Z,5.43
2023-02-04T20:16:49.557Z,5.13
2023-02-04T20:19:22.137Z,5.22
2023-02-04T20:22:20.968Z,4.70
2023-02-04T20:24:48.781Z,4.80
2023-02-04T20:27:36.173Z,4.63
2023-02-04T20:30:10.831Z,7.70
2023-02-04T20:32:40.782Z,11.35
2023-02-04T20:35:09.801Z,11.18
2023-02-04T20:37:36.609Z,8.93
2023-02-04T20:40:21.540Z,10.23
2023-02-04T20:43:09.604Z,8.18
2023-02-04T20:45:39.141Z,5.35
2023-02-04T20:48:18.010Z,9.02
2023-02-04T20:50:48.344Z,18.88
2023-02-04T20:53:28.414Z,10.77
2023-02-04T20:56:05.162Z,10.25
2023-02-04T20:58:34.753Z,9.00
2023-02-04T21:01:01.383Z,8.93
2023-02-04T21:03:34.070Z,9.50
2023-02-04T21:06:01.504Z,8.73
2023-02-04T21:08:40.881Z,8.82
2023-02-04T21:11:08.057Z,8.63
2023-02-04T21:13:35.328Z,8.75
2023-02-04T21:16:02.384Z,8.13
2023-02-04T21:18:30.171Z,8.45
2023-02-04T21:20:57.429Z,6.25
2023-02-04T21:23:23.997Z,7.13
2023-02-04T21:25:50.688Z,8.70
2023-02-04T21:28:17.408Z,5.90
2023-02-04T21:30:44.090Z,6.75
2023-02-04T21:33:11.693Z,6.43
2023-02-04T21:35:39.593Z,5.72
2023-02-04T21:38:07.280Z,4.70
2023-02-04T21:40:36.021Z,4.63
2023-02-04T21:43:07.580Z,3.58
2023-02-04T21:45:36.519Z,3.28
2023-02-04T21:48:04.807Z,3.42
2023-02-04T21:50:33.064Z,3.88
2023-02-04T21:53:00.116Z,3.80
2023-02-04T21:55:27.131Z,3.88
2023-02-04T21:57:53.738Z,4.32
2023-02-04T22:00:23.758Z,4.45
2023-02-04T22:02:51.759Z,5.28
2023-02-04T22:05:19.511Z,5.30
2023-02-04T22:07:46.647Z,4.65
2023-02-04T22:10:16.417Z,4.97
2023-02-04T22:12:43.046Z,4.68
2023-02-04T22:15:10.237Z,4.57
2023-02-04T22:17:36.788Z,8.57
2023-02-04T22:20:04.019Z,6.75
2023-02-04T22:22:30.803Z,6.05
2023-02-04T22:24:57.408Z,5.57
2023-02-04T22:27:24.041Z,5.80
2023-02-04T22:29:50.584Z,5.93
2023-02-04T22:32:17.153Z,5.72
2023-02-04T22:34:43.705Z,5.45
2023-02-04T22:37:10.282Z,4.68
2023-02-04T22:39:36.836Z,5.35
2023-02-04T22:42:03.682Z,5.22
2023-02-04T22:44:30.305Z,5.35
2023-02-04T22:46:56.909Z,5.15
2023-02-04T22:49:23.544Z,5.40
2023-02-04T22:51:50.162Z,5.57
2023-02-04T22:54:16.804Z,5.20
2023-02-04T22:56:43.429Z,4.90
2023-02-04T22:59:09.969Z,5.43
2023-02-04T23:01:36.647Z,8.63
2023-02-04T23:04:03.398Z,10.70
2023-02-04T23:06:30.026Z,5.95
2023-02-04T23:08:56.793Z,5.25
2023-02-04T23:11:24.837Z,5.20
2023-02-04T23:13:51.440Z,5.18
2023-02-04T23:16:19.109Z,5.78
2023-02-04T23:18:46.452Z,6.05
2023-02-04T23:21:14.085Z,6.97
2023-02-04T23:23:40.946Z,6.45
2023-02-04T23:26:07.595Z,6.40
2023-02-04T23:28:34.219Z,6.15
2023-02-04T23:31:00.834Z,6.95
2023-02-04T23:33:27.460Z,5.97
2023-02-04T23:35:54.112Z,6.80
2023-02-04T23:38:20.690Z,7.10
2023-02-04T23:40:47.235Z,6.72
2023-02-04T23:43:13.786Z,6.80
2023-02-04T23:45:40.413Z,7.57
2023-02-04T23:48:07.118Z,7.43
2023-02-04T23:50:33.653Z,6.70
2023-02-04T23:53:00.710Z,7.28
2023-02-04T23:55:27.334Z,7.70
2023-02-04T23:57:54.172Z,7.22
